createdAt,value
2018-09-11T00:01:41.580Z,5.30
2018-09-11T00:04:09.603Z,4.30
2018-09-11T00:06:37.616Z,4.07
2018-09-11T00:09:08.697Z,3.70
2018-09-11T00:11:36.691Z,4.10
2018-09-11T00:14:04.776Z,3.43
2018-09-11T00:16:32.784Z,3.80
2018-09-11T00:19:00.855Z,3.23
2018-09-11T00:21:28.918Z,3.80
2018-09-11T00:23:56.991Z,3.73
2018-09-11T00:26:25.015Z,4.40
2018-09-11T00:28:54.186Z,3.30
2018-09-11T00:31:22.288Z,5.70
2018-09-11T00:33:50.292Z,3.50
2018-09-11T00:36:18.312Z,3.37
2018-09-11T00:38:46.344Z,4.30
2018-09-11T00:41:14.348Z,3.90
2018-09-11T00:43:42.573Z,4.10
2018-09-11T00:46:10.629Z,4.13
2018-09-11T00:48:38.631Z,3.43
2018-09-11T00:51:06.729Z,3.53
2018-09-11T00:53:34.777Z,4.00
2018-09-11T00:56:02.828Z,3.80
2018-09-11T00:58:30.857Z,3.80
2018-09-11T01:00:58.876Z,4.03
2018-09-11T01:03:26.892Z,3.40
2018-09-11T01:05:54.944Z,3.40
2018-09-11T01:08:22.980Z,3.80
2018-09-11T01:10:51.006Z,4.47
2018-09-11T01:13:19.010Z,3.23
2018-09-11T01:15:47.045Z,4.00
2018-09-11T01:18:15.068Z,4.00
2018-09-11T01:20:43.232Z,3.70
2018-09-11T01:23:11.217Z,4.67
2018-09-11T01:25:39.259Z,3.40
2018-09-11T01:28:07.345Z,4.77
2018-09-11T01:30:35.383Z,3.90
2018-09-11T01:33:03.418Z,4.60
2018-09-11T01:35:31.431Z,3.80
2018-09-11T01:37:59.505Z,4.43
2018-09-11T01:40:27.640Z,3.97
2018-09-11T01:42:55.645Z,4.23
2018-09-11T01:45:23.660Z,3.60
2018-09-11T01:47:51.671Z,4.20
2018-09-11T01:50:19.687Z,4.37
2018-09-11T01:52:47.748Z,4.13
2018-09-11T01:55:15.751Z,4.90
2018-09-11T01:57:43.755Z,4.30
2018-09-11T02:00:16.435Z,4.60
2018-09-11T02:02:44.589Z,3.40
2018-09-11T02:05:12.612Z,3.83
2018-09-11T02:07:41.549Z,5.20
2018-09-11T02:10:09.584Z,3.30
2018-09-11T02:12:37.650Z,3.70
2018-09-11T02:15:05.992Z,3.97
2018-09-11T02:17:34.036Z,3.13
2018-09-11T02:20:02.076Z,3.20
2018-09-11T02:22:30.129Z,3.97
2018-09-11T02:24:58.286Z,4.00
2018-09-11T02:27:26.320Z,3.93
2018-09-11T02:29:54.324Z,3.70
2018-09-11T02:32:22.467Z,3.80
2018-09-11T02:34:50.501Z,3.30
2018-09-11T02:37:18.520Z,3.30
2018-09-11T02:39:46.560Z,3.80
2018-09-11T02:42:14.717Z,3.90
2018-09-11T02:44:42.904Z,3.60
2018-09-11T02:47:11.347Z,3.57
2018-09-11T02:49:39.417Z,3.37
2018-09-11T02:52:07.487Z,3.83
2018-09-11T02:54:35.589Z,3.90
2018-09-11T02:57:03.700Z,3.20
2018-09-11T02:59:31.835Z,3.20
2018-09-11T03:01:59.825Z,4.07
2018-09-11T03:04:27.835Z,3.97
2018-09-11T03:06:55.990Z,3.50
2018-09-11T03:09:24.089Z,3.63
2018-09-11T03:11:52.105Z,3.90
2018-09-11T03:14:20.160Z,3.90
2018-09-11T03:16:48.105Z,3.03
2018-09-11T03:19:16.140Z,3.10
2018-09-11T03:21:44.237Z,3.00
2018-09-11T03:24:12.288Z,3.50
2018-09-11T03:26:40.351Z,3.80
2018-09-11T03:29:08.432Z,3.13
2018-09-11T03:31:36.571Z,3.50
2018-09-11T03:34:04.592Z,3.27
2018-09-11T03:36:32.624Z,3.87
2018-09-11T03:39:00.652Z,3.30
2018-09-11T03:41:28.753Z,3.20
2018-09-11T03:43:56.804Z,3.10
2018-09-11T03:46:24.816Z,3.20
2018-09-11T03:48:52.824Z,3.37
2018-09-11T03:51:20.904Z,3.30
2018-09-11T03:53:48.983Z,3.10
2018-09-11T03:56:16.960Z,2.70
2018-09-11T03:58:45.091Z,3.17
2018-09-11T04:01:13.097Z,3.30
2018-09-11T04:03:41.201Z,2.77
2018-09-11T04:06:09.190Z,3.27
2018-09-11T04:08:37.209Z,2.97
2018-09-11T04:11:05.349Z,3.03
2018-09-11T04:13:33.399Z,3.50
2018-09-11T04:16:01.443Z,3.33
2018-09-11T04:18:29.442Z,3.37
2018-09-11T04:20:57.493Z,2.80
2018-09-11T04:23:25.528Z,3.40
2018-09-11T04:25:53.538Z,3.47
2018-09-11T04:28:21.545Z,3.47
2018-09-11T04:30:49.564Z,3.63
2018-09-11T04:33:17.875Z,2.80
2018-09-11T04:35:45.914Z,3.53
2018-09-11T04:38:13.901Z,3.40
2018-09-11T04:40:41.905Z,3.87
2018-09-11T04:43:09.956Z,4.00
2018-09-11T04:45:37.949Z,3.60
2018-09-11T04:48:06.005Z,3.77
2018-09-11T04:50:34.093Z,4.37
2018-09-11T04:53:02.121Z,4.07
2018-09-11T04:55:30.133Z,3.93
2018-09-11T04:57:58.150Z,4.27
2018-09-11T05:00:27.250Z,4.23
2018-09-11T05:02:55.356Z,4.20
2018-09-11T05:05:23.514Z,3.60
2018-09-11T05:07:51.553Z,3.80
2018-09-11T05:10:19.576Z,4.37
2018-09-11T05:12:47.577Z,3.80
2018-09-11T05:15:15.577Z,3.80
2018-09-11T05:17:43.581Z,3.80
2018-09-11T05:20:11.577Z,3.43
2018-09-11T05:22:39.633Z,4.83
2018-09-11T05:25:07.664Z,4.33
2018-09-11T05:27:35.728Z,3.57
2018-09-11T05:30:05.513Z,4.67
2018-09-11T05:32:33.549Z,4.90
2018-09-11T05:35:01.594Z,4.90
2018-09-11T05:37:29.645Z,3.47
2018-09-11T05:39:57.747Z,4.80
2018-09-11T05:42:26.021Z,5.03
2018-09-11T05:44:54.069Z,5.10
2018-09-11T05:47:22.091Z,5.60
2018-09-11T05:49:50.120Z,6.20
2018-09-11T05:52:18.169Z,6.00
2018-09-11T05:54:46.240Z,5.37
2018-09-11T05:57:14.297Z,6.03
2018-09-11T05:59:42.413Z,6.73
2018-09-11T06:02:10.426Z,8.00
2018-09-11T06:04:38.420Z,7.20
2018-09-11T06:07:06.527Z,7.47
2018-09-11T06:09:34.561Z,7.90
2018-09-11T06:12:02.689Z,7.20
2018-09-11T06:14:30.726Z,8.87
2018-09-11T06:16:58.845Z,7.60
2018-09-11T06:19:26.851Z,7.83
2018-09-11T06:21:54.852Z,8.60
2018-09-11T06:24:22.873Z,8.50
2018-09-11T06:26:50.997Z,7.93
2018-09-11T06:29:19.158Z,8.03
2018-09-11T06:31:47.043Z,9.40
2018-09-11T06:34:15.108Z,8.70
2018-09-11T06:36:43.120Z,8.43
2018-09-11T06:39:11.799Z,8.90
2018-09-11T06:41:40.056Z,9.20
2018-09-11T06:44:08.113Z,8.80
2018-09-11T06:46:36.134Z,8.40
2018-09-11T06:49:04.677Z,9.00
2018-09-11T06:51:32.906Z,9.67
2018-09-11T06:54:01.404Z,9.60
2018-09-11T06:56:29.559Z,8.33
2018-09-11T06:58:57.680Z,8.00
2018-09-11T07:01:25.897Z,9.17
2018-09-11T07:03:53.923Z,8.23
2018-09-11T07:06:22.138Z,7.77
2018-09-11T07:08:50.232Z,7.67
2018-09-11T07:11:18.360Z,7.30
2018-09-11T07:13:46.421Z,7.37
2018-09-11T07:16:14.439Z,6.37
2018-09-11T07:18:42.456Z,7.30
2018-09-11T07:21:10.531Z,6.73
2018-09-11T07:23:38.517Z,6.30
2018-09-11T07:26:06.717Z,7.23
2018-09-11T07:28:34.816Z,5.73
2018-09-11T07:31:02.843Z,6.23
2018-09-11T07:33:30.830Z,6.20
2018-09-11T07:35:58.877Z,5.90
2018-09-11T07:38:26.904Z,5.53
2018-09-11T07:40:54.913Z,5.40
2018-09-11T07:43:22.924Z,5.43
2018-09-11T07:45:51.089Z,5.43
2018-09-11T07:48:19.177Z,4.97
2018-09-11T07:50:47.217Z,4.87
2018-09-11T07:53:15.248Z,4.47
2018-09-11T07:55:43.340Z,4.73
2018-09-11T07:58:11.412Z,4.40
2018-09-11T08:00:39.413Z,4.23
2018-09-11T08:03:07.671Z,4.27
2018-09-11T08:05:35.673Z,4.40
2018-09-11T08:08:03.721Z,5.00
2018-09-11T08:10:31.772Z,5.13
2018-09-11T08:12:59.844Z,3.83
2018-09-11T08:15:28.123Z,3.97
2018-09-11T08:17:56.216Z,4.30
2018-09-11T08:20:24.252Z,3.80
2018-09-11T08:22:52.285Z,3.23
2018-09-11T08:25:20.335Z,3.53
2018-09-11T08:27:48.363Z,3.23
2018-09-11T08:30:16.501Z,3.80
2018-09-11T08:32:44.590Z,3.40
2018-09-11T08:35:12.631Z,3.33
2018-09-11T08:37:40.661Z,3.63
2018-09-11T08:40:08.702Z,4.23
2018-09-11T08:42:36.721Z,3.27
2018-09-11T08:45:04.921Z,3.77
2018-09-11T08:47:33.019Z,3.50
2018-09-11T08:50:01.072Z,3.93
2018-09-11T08:52:29.146Z,3.20
2018-09-11T08:54:57.188Z,3.60
2018-09-11T08:57:25.216Z,3.50
2018-09-11T08:59:53.390Z,4.30
2018-09-11T09:02:21.441Z,3.20
2018-09-11T09:04:49.616Z,3.90
2018-09-11T09:07:17.625Z,3.80
2018-09-11T09:09:45.793Z,3.73
2018-09-11T09:12:13.796Z,3.50
2018-09-11T09:14:41.796Z,3.50
2018-09-11T09:17:09.796Z,4.00
2018-09-11T09:19:37.921Z,3.70
2018-09-11T09:22:05.977Z,3.30
2018-09-11T09:24:34.096Z,3.67
2018-09-11T09:27:02.299Z,4.40
2018-09-11T09:29:30.368Z,5.03
2018-09-11T09:31:58.498Z,3.63
2018-09-11T09:34:26.634Z,3.47
2018-09-11T09:36:54.717Z,3.60
2018-09-11T09:39:22.703Z,3.37
2018-09-11T09:41:50.769Z,3.33
2018-09-11T09:44:18.818Z,3.80
2018-09-11T09:46:46.910Z,3.37
2018-09-11T09:49:15.277Z,3.20
2018-09-11T09:51:43.343Z,3.30
2018-09-11T09:54:11.373Z,3.20
2018-09-11T09:56:39.628Z,3.37
2018-09-11T09:59:07.689Z,4.50
2018-09-11T10:01:41.193Z,3.30
2018-09-11T10:04:09.330Z,2.73
2018-09-11T10:06:37.388Z,3.20
2018-09-11T10:09:07.772Z,3.70
2018-09-11T10:11:35.886Z,3.43
2018-09-11T10:14:03.855Z,3.40
2018-09-11T10:16:31.864Z,2.83
2018-09-11T10:18:59.988Z,3.03
2018-09-11T10:21:28.008Z,4.83
2018-09-11T10:23:56.106Z,3.80
2018-09-11T10:26:24.302Z,3.13
2018-09-11T10:28:52.473Z,3.40
2018-09-11T10:31:20.505Z,4.03
2018-09-11T10:33:48.705Z,2.77
2018-09-11T10:36:16.810Z,3.27
2018-09-11T10:38:44.916Z,3.40
2018-09-11T10:41:13.026Z,3.23
2018-09-11T10:43:41.327Z,3.43
2018-09-11T10:46:09.304Z,4.10
2018-09-11T10:48:37.431Z,3.23
2018-09-11T10:51:05.420Z,2.70
2018-09-11T10:53:33.473Z,3.27
2018-09-11T10:56:01.538Z,2.77
2018-09-11T10:58:29.580Z,3.20
2018-09-11T11:00:57.640Z,3.20
2018-09-11T11:03:26.480Z,3.33
2018-09-11T11:05:54.744Z,2.80
2018-09-11T11:08:22.900Z,3.00
2018-09-11T11:10:51.039Z,3.13
2018-09-11T11:13:19.062Z,3.23
2018-09-11T11:15:47.117Z,3.03
2018-09-11T11:18:15.168Z,3.43
2018-09-11T11:20:43.209Z,3.33
2018-09-11T11:23:11.233Z,2.90
2018-09-11T11:25:39.263Z,2.77
2018-09-11T11:28:07.291Z,3.60
2018-09-11T11:30:35.344Z,3.60
2018-09-11T11:33:03.574Z,3.03
2018-09-11T11:35:31.569Z,2.87
2018-09-11T11:37:59.655Z,4.00
2018-09-11T11:40:27.691Z,2.73
2018-09-11T11:42:55.773Z,3.30
2018-09-11T11:45:23.825Z,2.50
2018-09-11T11:47:51.850Z,2.47
2018-09-11T11:50:19.913Z,2.60
2018-09-11T11:52:47.993Z,2.90
2018-09-11T11:55:16.169Z,2.77
2018-09-11T11:57:44.097Z,2.30
2018-09-11T12:00:12.174Z,2.40
2018-09-11T12:02:40.266Z,2.30
2018-09-11T12:05:08.332Z,2.33
2018-09-11T12:07:36.421Z,2.60
2018-09-11T12:10:04.457Z,3.70
2018-09-11T12:12:32.564Z,1.97
2018-09-11T12:15:00.608Z,2.70
2018-09-11T12:17:28.772Z,3.20
2018-09-11T12:19:56.852Z,2.50
2018-09-11T12:22:24.925Z,2.60
2018-09-11T12:24:53.030Z,2.43
2018-09-11T12:27:21.087Z,2.40
2018-09-11T12:29:49.221Z,2.20
2018-09-11T12:32:17.309Z,2.47
2018-09-11T12:34:45.336Z,3.03
2018-09-11T12:37:13.410Z,2.50
2018-09-11T12:39:41.537Z,2.57
2018-09-11T12:42:10.000Z,2.37
2018-09-11T12:44:38.047Z,2.50
2018-09-11T12:47:06.927Z,3.27
2018-09-11T12:49:34.784Z,2.60
2018-09-11T12:52:02.785Z,2.43
2018-09-11T12:54:30.809Z,2.70
2018-09-11T12:56:58.826Z,3.07
2018-09-11T12:59:26.873Z,2.60
2018-09-11T13:01:54.867Z,2.03
2018-09-11T13:04:22.970Z,2.30
2018-09-11T13:06:50.998Z,3.23
2018-09-11T13:09:19.058Z,1.90
2018-09-11T13:11:47.240Z,3.37
2018-09-11T13:14:15.307Z,3.40
2018-09-11T13:16:43.303Z,2.40
2018-09-11T13:19:11.308Z,2.43
2018-09-11T13:21:39.314Z,2.27
2018-09-11T13:24:07.344Z,2.27
2018-09-11T13:26:35.377Z,2.10
2018-09-11T13:29:03.460Z,2.13
2018-09-11T13:31:31.513Z,1.80
2018-09-11T13:33:59.770Z,2.20
2018-09-11T13:36:27.833Z,2.17
2018-09-11T13:38:56.025Z,1.80
2018-09-11T13:41:24.090Z,2.57
2018-09-11T13:43:52.108Z,1.83
2018-09-11T13:46:20.251Z,2.40
2018-09-11T13:48:48.261Z,1.83
2018-09-11T13:51:16.420Z,1.90
2018-09-11T13:53:44.668Z,2.37
2018-09-11T13:56:12.925Z,1.80
2018-09-11T13:58:41.305Z,1.80
2018-09-11T14:01:09.595Z,1.60
2018-09-11T14:03:38.016Z,1.57
2018-09-11T14:06:06.322Z,2.00
2018-09-11T14:08:34.632Z,2.93
2018-09-11T14:11:03.036Z,2.10
2018-09-11T14:13:31.287Z,2.00
2018-09-11T14:15:59.582Z,2.00
2018-09-11T14:18:27.701Z,1.70
2018-09-11T14:20:55.875Z,1.67
2018-09-11T14:23:23.961Z,2.13
2018-09-11T14:25:52.188Z,1.60
2018-09-11T14:28:20.360Z,1.90
2018-09-11T14:30:48.384Z,2.43
2018-09-11T14:33:16.442Z,2.00
2018-09-11T14:35:44.550Z,1.90
2018-09-11T14:38:12.670Z,1.87
2018-09-11T14:40:40.728Z,2.27
2018-09-11T14:43:08.728Z,2.10
2018-09-11T14:45:36.860Z,2.30
2018-09-11T14:48:05.038Z,1.87
2018-09-11T14:50:33.061Z,1.80
2018-09-11T14:53:01.137Z,1.93
2018-09-11T14:55:29.253Z,1.70
2018-09-11T14:57:57.282Z,2.10
2018-09-11T15:00:25.480Z,2.10
2018-09-11T15:02:53.761Z,1.87
2018-09-11T15:05:21.785Z,2.20
2018-09-11T15:07:49.860Z,2.03
2018-09-11T15:10:17.961Z,2.10
2018-09-11T15:12:46.057Z,2.13
2018-09-11T15:15:15.225Z,2.10
2018-09-11T15:17:43.192Z,1.17
2018-09-11T15:20:11.279Z,1.50
2018-09-11T15:22:39.424Z,1.80
2018-09-11T15:25:07.510Z,1.90
2018-09-11T15:27:35.601Z,1.70
2018-09-11T15:30:04.954Z,1.80
2018-09-11T15:32:32.940Z,2.33
2018-09-11T15:35:00.947Z,1.80
2018-09-11T15:37:29.028Z,1.93
2018-09-11T15:39:57.073Z,1.90
2018-09-11T15:42:25.086Z,1.77
2018-09-11T15:44:53.089Z,2.03
2018-09-11T15:47:21.145Z,1.90
2018-09-11T15:49:49.189Z,1.80
2018-09-11T15:52:17.312Z,2.03
2018-09-11T15:54:45.306Z,1.80
2018-09-11T15:57:13.329Z,1.90
2018-09-11T15:59:41.369Z,2.00
2018-09-11T16:02:09.395Z,1.77
2018-09-11T16:04:37.404Z,1.67
2018-09-11T16:07:05.438Z,1.80
2018-09-11T16:09:33.477Z,2.63
2018-09-11T16:12:01.497Z,1.93
2018-09-11T16:14:29.529Z,1.67
2018-09-11T16:16:57.637Z,1.30
2018-09-11T16:19:25.678Z,2.17
2018-09-11T16:21:53.705Z,1.43
2018-09-11T16:24:21.722Z,1.80
2018-09-11T16:26:49.734Z,1.77
2018-09-11T16:29:17.768Z,2.10
2018-09-11T16:31:45.780Z,1.77
2018-09-11T16:34:14.061Z,2.07
2018-09-11T16:36:42.150Z,2.00
2018-09-11T16:39:11.957Z,1.80
2018-09-11T16:41:40.136Z,2.10
2018-09-11T16:44:08.180Z,2.00
2018-09-11T16:46:36.510Z,2.00
2018-09-11T16:49:04.548Z,2.00
2018-09-11T16:51:32.669Z,2.10
2018-09-11T16:54:00.691Z,2.10
2018-09-11T16:56:28.769Z,2.50
2018-09-11T16:58:56.889Z,2.10
2018-09-11T17:01:24.881Z,1.80
2018-09-11T17:03:52.946Z,1.83
2018-09-11T17:06:20.964Z,1.90
2018-09-11T17:08:50.056Z,1.63
2018-09-11T17:11:18.091Z,2.43
2018-09-11T17:13:46.163Z,2.27
2018-09-11T17:16:14.172Z,2.63
2018-09-11T17:18:42.233Z,1.97
2018-09-11T17:21:10.305Z,2.17
2018-09-11T17:23:38.385Z,1.77
2018-09-11T17:26:06.401Z,2.30
2018-09-11T17:28:34.501Z,2.23
2018-09-11T17:31:03.034Z,2.40
2018-09-11T17:33:31.244Z,2.63
2018-09-11T17:35:59.437Z,2.37
2018-09-11T17:38:27.729Z,2.23
2018-09-11T17:40:55.825Z,2.20
2018-09-11T17:43:24.088Z,1.70
2018-09-11T17:45:52.492Z,2.10
2018-09-11T17:48:20.937Z,2.10
2018-09-11T17:50:49.134Z,1.80
2018-09-11T17:53:17.257Z,2.47
2018-09-11T17:55:45.416Z,2.60
2018-09-11T17:58:13.469Z,1.90
2018-09-11T18:00:42.120Z,2.00
2018-09-11T18:03:10.183Z,2.37
2018-09-11T18:05:38.343Z,2.77
2018-09-11T18:08:06.549Z,2.43
2018-09-11T18:10:34.645Z,2.10
2018-09-11T18:13:02.681Z,2.40
2018-09-11T18:15:30.756Z,2.43
2018-09-11T18:17:58.836Z,2.50
2018-09-11T18:20:26.840Z,2.33
2018-09-11T18:22:56.030Z,2.00
2018-09-11T18:25:24.142Z,2.80
2018-09-11T18:27:52.181Z,2.90
2018-09-11T18:30:20.257Z,2.27
2018-09-11T18:32:48.272Z,2.27
2018-09-11T18:35:16.331Z,2.33
2018-09-11T18:37:44.381Z,2.50
2018-09-11T18:40:12.449Z,2.43
2018-09-11T18:42:40.478Z,2.80
2018-09-11T18:45:08.552Z,2.43
2018-09-11T18:47:36.694Z,2.57
2018-09-11T18:50:04.819Z,2.33
2018-09-11T18:52:32.879Z,3.00
2018-09-11T18:55:01.049Z,2.50
2018-09-11T18:57:29.091Z,2.97
2018-09-11T18:59:57.212Z,2.37
2018-09-11T19:02:25.288Z,2.87
2018-09-11T19:04:54.329Z,2.30
2018-09-11T19:07:22.425Z,2.63
2018-09-11T19:09:51.457Z,2.80
2018-09-11T19:12:19.477Z,2.70
2018-09-11T19:14:47.675Z,2.40
2018-09-11T19:17:15.887Z,2.73
2018-09-11T19:19:43.991Z,3.20
2018-09-11T19:22:12.135Z,2.27
2018-09-11T19:24:40.300Z,2.80
2018-09-11T19:27:09.400Z,2.40
2018-09-11T19:29:37.560Z,2.93
2018-09-11T19:32:05.569Z,3.10
2018-09-11T19:34:33.708Z,2.93
2018-09-11T19:37:01.861Z,2.87
2018-09-11T19:39:29.909Z,3.07
2018-09-11T19:41:57.969Z,2.90
2018-09-11T19:44:26.107Z,3.40
2018-09-11T19:46:54.249Z,3.73
2018-09-11T19:49:22.333Z,3.50
2018-09-11T19:51:50.346Z,3.40
2018-09-11T19:54:18.408Z,2.90
2018-09-11T19:56:46.472Z,2.80
2018-09-11T19:59:14.712Z,3.10
2018-09-11T20:01:42.736Z,2.80
2018-09-11T20:04:10.803Z,2.67
2018-09-11T20:06:38.884Z,3.40
2018-09-11T20:09:09.548Z,3.10
2018-09-11T20:11:37.682Z,3.13
2018-09-11T20:14:06.281Z,3.30
2018-09-11T20:16:34.583Z,2.87
2018-09-11T20:19:02.820Z,3.13
2018-09-11T20:21:30.864Z,3.27
2018-09-11T20:23:59.048Z,2.90
2018-09-11T20:26:27.133Z,3.03
2018-09-11T20:28:55.439Z,3.33
2018-09-11T20:31:23.557Z,3.80
2018-09-11T20:33:51.978Z,3.77
2018-09-11T20:36:20.232Z,3.40
2018-09-11T20:38:48.261Z,3.03
2018-09-11T20:41:16.346Z,3.60
2018-09-11T20:43:44.453Z,3.40
2018-09-11T20:46:12.456Z,3.30
2018-09-11T20:48:40.541Z,3.13
2018-09-11T20:51:09.003Z,3.50
2018-09-11T20:53:37.305Z,3.17
2018-09-11T20:56:05.383Z,4.30
2018-09-11T20:58:33.468Z,3.80
2018-09-11T21:01:01.656Z,3.43
2018-09-11T21:03:29.672Z,3.63
2018-09-11T21:05:57.745Z,3.90
2018-09-11T21:08:25.880Z,3.30
2018-09-11T21:10:54.071Z,3.50
2018-09-11T21:13:22.164Z,3.57
2018-09-11T21:15:50.420Z,3.40
2018-09-11T21:18:19.626Z,3.10
2018-09-11T21:20:47.660Z,4.40
2018-09-11T21:23:15.931Z,3.47
2018-09-11T21:25:44.080Z,3.07
2018-09-11T21:28:12.190Z,3.10
2018-09-11T21:30:40.258Z,3.23
2018-09-11T21:33:08.298Z,3.50
2018-09-11T21:35:36.373Z,3.70
2018-09-11T21:38:04.408Z,3.53
2018-09-11T21:40:32.483Z,3.47
2018-09-11T21:43:00.513Z,3.43
2018-09-11T21:45:28.569Z,3.70
2018-09-11T21:47:56.589Z,3.60
2018-09-11T21:50:24.581Z,3.03
2018-09-11T21:52:52.668Z,3.60
2018-09-11T21:55:20.701Z,3.90
2018-09-11T21:57:48.728Z,3.40
2018-09-11T22:00:16.901Z,3.37
2018-09-11T22:02:44.941Z,3.90
2018-09-11T22:05:12.984Z,4.03
2018-09-11T22:07:41.016Z,3.73
2018-09-11T22:10:10.003Z,2.97
2018-09-11T22:12:38.013Z,3.20
2018-09-11T22:15:06.339Z,3.30
2018-09-11T22:17:34.544Z,3.67
2018-09-11T22:20:02.612Z,3.00
2018-09-11T22:22:30.678Z,2.80
2018-09-11T22:24:58.819Z,3.20
2018-09-11T22:27:26.816Z,3.07
2018-09-11T22:29:54.937Z,3.07
2018-09-11T22:32:23.065Z,3.87
2018-09-11T22:34:51.088Z,3.20
2018-09-11T22:37:19.206Z,2.90
2018-09-11T22:39:47.220Z,3.90
2018-09-11T22:42:15.303Z,3.50
2018-09-11T22:44:43.313Z,3.07
2018-09-11T22:47:11.369Z,3.60
2018-09-11T22:49:39.384Z,4.57
2018-09-11T22:52:07.541Z,2.83
2018-09-11T22:54:35.565Z,3.20
2018-09-11T22:57:03.612Z,4.50
2018-09-11T22:59:31.729Z,2.57
2018-09-11T23:01:59.753Z,3.00
2018-09-11T23:04:28.003Z,3.93
2018-09-11T23:06:56.013Z,3.83
2018-09-11T23:09:24.061Z,3.10
2018-09-11T23:11:52.140Z,3.60
2018-09-11T23:14:20.249Z,3.70
2018-09-11T23:16:48.368Z,3.70
2018-09-11T23:19:16.548Z,4.00
2018-09-11T23:21:44.553Z,3.60
2018-09-11T23:24:12.632Z,4.37
2018-09-11T23:26:40.647Z,3.47
2018-09-11T23:29:08.680Z,3.50
2018-09-11T23:31:36.721Z,3.83
2018-09-11T23:34:04.749Z,4.27
2018-09-11T23:36:32.749Z,3.50
2018-09-11T23:39:00.893Z,4.30
2018-09-11T23:41:28.941Z,3.77
2018-09-11T23:43:57.064Z,3.83
2018-09-11T23:46:25.089Z,3.97
2018-09-11T23:48:53.117Z,3.73
2018-09-11T23:51:21.218Z,3.70
2018-09-11T23:53:49.226Z,3.60
2018-09-11T23:56:17.263Z,4.50
2018-09-11T23:58:45.324Z,3.70
